Time;durP1;ratioP1;P1;durP2;ratioP2;P2;SDS_P1;SDS_P2;PMS_P1;PMS_P2;Temp;Humidity;BMP_temperature;BMP_pressure;BME280_temperature;BME280_humidity;BME280_pressure;Samples;Min_cycle;Max_cycle;Signal;HPM_P1;HPM_P2
2023/12/04 00:01:54;;;;;;;;;;;2.80;99.90;;;;;;7335067;19;110001;-66
2023/12/04 00:04:21;;;;;;;;;;;2.80;99.90;;;;;;7334599;19;109077;-66
2023/12/04 00:06:49;;;;;;;;;;;2.80;99.90;;;;;;7334798;19;108590;-66
2023/12/04 00:09:16;;;;;;;;;;;2.90;99.90;;;;;;7333915;19;109752;-66
2023/12/04 00:11:43;;;;;;;;;;;2.80;99.90;;;;;;7340538;19;109341;-71
2023/12/04 00:14:10;;;;;;;;;;;2.80;99.90;;;;;;7330869;19;110249;-68
2023/12/04 00:16:37;;;;;;;;;;;2.80;99.90;;;;;;7332192;19;108712;-67
2023/12/04 00:19:04;;;;;;;;;;;2.80;99.90;;;;;;7333536;19;109594;-66
2023/12/04 00:21:31;;;;;;;;;;;2.90;99.90;;;;;;7334396;19;109678;-65
2023/12/04 00:23:59;;;;;;;;;;;2.80;99.90;;;;;;7334657;19;109043;-66
2023/12/04 00:26:26;;;;;;;;;;;2.80;99.90;;;;;;7332430;19;110489;-66
2023/12/04 00:28:53;;;;;;;;;;;2.90;99.90;;;;;;7332477;19;109511;-69
2023/12/04 00:31:20;;;;;;;;;;;2.90;99.90;;;;;;7332373;19;108770;-72
2023/12/04 00:33:48;;;;;;;;;;;2.90;99.90;;;;;;7338773;19;108946;-71
2023/12/04 00:36:15;;;;;;;;;;;2.90;99.90;;;;;;7331255;19;112214;-73
2023/12/04 00:41:30;;;;;;;;;;;2.90;99.90;;;;;;7333831;19;109590;-82
2023/12/04 00:43:58;;;;;;;;;;;2.90;99.90;;;;;;7332729;19;109019;-84
2023/12/04 00:46:25;;;;;;;;;;;2.90;99.90;;;;;;7332496;19;109102;-84
2023/12/04 00:48:53;;;;;;;;;;;2.90;99.90;;;;;;7332852;19;110677;-84
2023/12/04 00:51:20;;;;;;;;;;;2.90;99.90;;;;;;7338610;19;110146;-83
2023/12/04 00:53:47;;;;;;;;;;;2.90;99.90;;;;;;7336057;19;110978;-83
2023/12/04 00:56:14;;;;;;;;;;;2.90;99.90;;;;;;7338155;19;110204;-83
2023/12/04 00:58:41;;;;;;;;;;;2.90;99.90;;;;;;7335494;19;109438;-84
2023/12/04 01:01:09;;;;;;;;;;;2.90;99.90;;;;;;7330980;19;113130;-84
2023/12/04 01:03:37;;;;;;;;;;;2.90;99.90;;;;;;7336324;19;108633;-83
2023/12/04 01:06:04;;;;;;;;;;;2.90;99.90;;;;;;7335695;19;108643;-84
2023/12/04 01:08:34;;;;;;;;;;;2.90;99.90;;;;;;7330165;19;110490;-83
2023/12/04 01:11:01;;;;;;;;;;;2.80;99.90;;;;;;7332315;19;108869;-84
2023/12/04 01:13:28;;;;;;;;;;;2.80;99.90;;;;;;7331403;19;109845;-87
2023/12/04 01:15:56;;;;;;;;;;;2.80;99.90;;;;;;7337272;19;110465;-84
2023/12/04 01:18:24;;;;;;;;;;;2.80;99.90;;;;;;7328860;19;108464;-84
2023/12/04 01:20:51;;;;;;;;;;;2.80;99.90;;;;;;7334483;19;110302;-83
2023/12/04 01:23:18;;;;;;;;;;;2.80;99.90;;;;;;7330910;19;109091;-83
2023/12/04 01:25:45;;;;;;;;;;;2.80;99.90;;;;;;7330925;19;110023;-84
2023/12/04 01:28:14;;;;;;;;;;;2.80;99.90;;;;;;7331523;19;109473;-83
2023/12/04 01:30:41;;;;;;;;;;;2.80;99.90;;;;;;7333474;19;108880;-84
2023/12/04 01:33:08;;;;;;;;;;;2.80;99.90;;;;;;7340995;19;111307;-84
2023/12/04 01:35:35;;;;;;;;;;;2.80;99.90;;;;;;7342075;19;110393;-84
2023/12/04 01:38:02;;;;;;;;;;;2.80;99.90;;;;;;7346081;19;108879;-84
2023/12/04 01:40:30;;;;;;;;;;;2.80;99.90;;;;;;7339795;19;111706;-83
2023/12/04 01:42:57;;;;;;;;;;;2.80;99.90;;;;;;7338026;19;110230;-84
2023/12/04 01:45:24;;;;;;;;;;;2.80;99.90;;;;;;7337900;19;109367;-83
2023/12/04 01:47:51;;;;;;;;;;;2.80;99.90;;;;;;7338806;19;110095;-84
2023/12/04 01:50:19;;;;;;;;;;;2.80;99.90;;;;;;7339943;19;109524;-83
2023/12/04 01:52:46;;;;;;;;;;;2.70;99.90;;;;;;7338825;19;109254;-83
2023/12/04 01:55:14;;;;;;;;;;;2.70;99.90;;;;;;7338947;19;109829;-84
2023/12/04 01:57:42;;;;;;;;;;;2.70;99.90;;;;;;7340301;19;108346;-83
2023/12/04 02:00:11;;;;;;;;;;;2.70;99.90;;;;;;7343630;19;109060;-86
2023/12/04 02:02:39;;;;;;;;;;;2.70;99.90;;;;;;7339621;19;108761;-84
2023/12/04 02:05:07;;;;;;;;;;;2.70;99.90;;;;;;7338807;19;109207;-83
2023/12/04 02:07:36;;;;;;;;;;;2.70;99.90;;;;;;7339423;19;110338;-83
2023/12/04 02:10:04;;;;;;;;;;;2.70;99.90;;;;;;7341194;19;109101;-83
2023/12/04 02:12:31;;;;;;;;;;;2.70;99.90;;;;;;7339050;19;109067;-84
2023/12/04 02:14:58;;;;;;;;;;;2.70;99.90;;;;;;7339821;19;109275;-84
2023/12/04 02:17:26;;;;;;;;;;;2.70;99.90;;;;;;7343062;19;108687;-83
2023/12/04 02:19:53;;;;;;;;;;;2.70;99.90;;;;;;7338404;19;110069;-83
2023/12/04 02:22:20;;;;;;;;;;;2.70;99.90;;;;;;7349586;19;110568;-83
2023/12/04 02:24:48;;;;;;;;;;;2.70;99.90;;;;;;7334625;19;110898;-66
2023/12/04 02:27:22;;;;;;;;;;;2.70;99.90;;;;;;7338394;19;110344;-66
2023/12/04 02:30:01;;;;;;;;;;;2.70;99.90;;;;;;7336895;19;108938;-66
2023/12/04 02:32:30;;;;;;;;;;;2.70;99.90;;;;;;7334495;19;110516;-74
2023/12/04 02:34:59;;;;;;;;;;;2.70;99.90;;;;;;7334345;19;109636;-76
2023/12/04 02:37:27;;;;;;;;;;;2.70;99.90;;;;;;7333403;19;109134;-72
2023/12/04 02:39:55;;;;;;;;;;;2.70;99.90;;;;;;7330785;19;109410;-68
2023/12/04 02:42:24;;;;;;;;;;;2.70;99.90;;;;;;7334013;19;109721;-66
2023/12/04 02:44:51;;;;;;;;;;;2.70;99.90;;;;;;7334204;19;111274;-66
2023/12/04 02:47:19;;;;;;;;;;;2.70;99.90;;;;;;7333718;19;109111;-66
2023/12/04 02:49:46;;;;;;;;;;;2.70;99.90;;;;;;7335279;19;109238;-66
2023/12/04 02:52:13;;;;;;;;;;;2.70;99.90;;;;;;7330535;19;113130;-67
2023/12/04 02:54:40;;;;;;;;;;;2.70;99.90;;;;;;7334421;19;109168;-66
2023/12/04 02:57:08;;;;;;;;;;;2.70;99.90;;;;;;7337534;19;108969;-66
2023/12/04 02:59:35;;;;;;;;;;;2.60;99.90;;;;;;7334218;19;108679;-66
2023/12/04 03:02:02;;;;;;;;;;;2.70;99.90;;;;;;7333770;19;109079;-65
2023/12/04 03:04:30;;;;;;;;;;;2.70;99.90;;;;;;7333734;19;108719;-65
2023/12/04 03:06:57;;;;;;;;;;;2.70;99.90;;;;;;7338363;19;109195;-66
2023/12/04 03:09:25;;;;;;;;;;;2.70;99.90;;;;;;7333829;19;110092;-66
2023/12/04 03:12:12;;;;;;;;;;;2.70;99.90;;;;;;7332811;19;110506;-66
2023/12/04 03:14:39;;;;;;;;;;;2.70;99.90;;;;;;7333483;19;110167;-66
2023/12/04 03:17:06;;;;;;;;;;;2.70;99.90;;;;;;7333958;19;108888;-70
2023/12/04 03:19:34;;;;;;;;;;;2.70;99.90;;;;;;7333338;19;109179;-66
2023/12/04 03:22:02;;;;;;;;;;;2.70;99.90;;;;;;7337592;19;109402;-66
2023/12/04 03:24:29;;;;;;;;;;;2.70;99.90;;;;;;7335465;19;110083;-67
2023/12/04 03:26:56;;;;;;;;;;;2.70;99.90;;;;;;7339316;19;108822;-66
2023/12/04 03:29:23;;;;;;;;;;;2.80;99.90;;;;;;7329910;19;108945;-68
2023/12/04 03:31:51;;;;;;;;;;;2.80;99.90;;;;;;7333707;19;109609;-69
2023/12/04 03:34:18;;;;;;;;;;;2.80;99.90;;;;;;7333489;19;110496;-66
2023/12/04 03:36:45;;;;;;;;;;;2.80;99.90;;;;;;7334668;19;108981;-77
2023/12/04 03:39:12;;;;;;;;;;;2.80;99.90;;;;;;7333429;19;110061;-74
2023/12/04 03:41:39;;;;;;;;;;;2.80;99.90;;;;;;7331756;19;109078;-71
2023/12/04 03:44:06;;;;;;;;;;;2.90;99.90;;;;;;7336196;19;108781;-67
2023/12/04 03:46:34;;;;;;;;;;;2.80;99.90;;;;;;7332626;19;109743;-68
2023/12/04 03:49:02;;;;;;;;;;;2.80;99.90;;;;;;7340026;19;110402;-84
2023/12/04 03:51:29;;;;;;;;;;;2.80;99.90;;;;;;7333932;19;110019;-84
2023/12/04 03:53:56;;;;;;;;;;;2.90;99.90;;;;;;7331907;19;110540;-84
2023/12/04 03:56:26;;;;;;;;;;;2.80;99.90;;;;;;7333498;19;111207;-69
2023/12/04 03:58:53;;;;;;;;;;;2.90;99.90;;;;;;7334195;19;110394;-66
2023/12/04 04:01:20;;;;;;;;;;;2.90;99.90;;;;;;7327859;19;109698;-67
2023/12/04 04:03:47;;;;;;;;;;;2.90;99.90;;;;;;7335051;19;109142;-66
2023/12/04 04:06:15;;;;;;;;;;;2.90;99.90;;;;;;7333632;19;108731;-65
2023/12/04 04:08:42;;;;;;;;;;;2.90;99.90;;;;;;7331158;19;110079;-66
2023/12/04 04:11:09;;;;;;;;;;;2.90;99.90;;;;;;7340201;19;109666;-65
2023/12/04 04:13:36;;;;;;;;;;;2.90;99.90;;;;;;7331822;19;112382;-66
2023/12/04 04:16:03;;;;;;;;;;;3.00;99.90;;;;;;7331779;19;108948;-66
2023/12/04 04:18:31;;;;;;;;;;;3.00;99.90;;;;;;7331899;19;108694;-67
2023/12/04 04:20:58;;;;;;;;;;;3.00;99.90;;;;;;7330790;19;109675;-66
2023/12/04 04:23:25;;;;;;;;;;;3.00;99.90;;;;;;7331117;19;108817;-66
2023/12/04 04:25:53;;;;;;;;;;;3.00;99.90;;;;;;7334047;19;109117;-66
2023/12/04 04:28:20;;;;;;;;;;;3.10;99.90;;;;;;7331417;19;110702;-66
2023/12/04 04:30:47;;;;;;;;;;;3.10;99.90;;;;;;7330497;19;110228;-66
2023/12/04 04:33:14;;;;;;;;;;;3.10;99.90;;;;;;7334410;19;111034;-66
2023/12/04 04:35:42;;;;;;;;;;;3.10;99.90;;;;;;7331974;19;109748;-66
2023/12/04 04:38:09;;;;;;;;;;;3.10;99.90;;;;;;7332571;19;108947;-65
2023/12/04 04:40:36;;;;;;;;;;;3.10;99.90;;;;;;7331764;19;110488;-65
2023/12/04 04:43:03;;;;;;;;;;;3.10;99.90;;;;;;7330193;19;109259;-65
2023/12/04 04:45:30;;;;;;;;;;;3.10;99.90;;;;;;7332025;19;108279;-65
2023/12/04 04:47:57;;;;;;;;;;;3.10;99.90;;;;;;7328064;19;110237;-65
2023/12/04 04:50:24;;;;;;;;;;;3.10;99.90;;;;;;7331806;19;108531;-67
2023/12/04 04:52:51;;;;;;;;;;;3.10;99.90;;;;;;7330100;19;111056;-65
2023/12/04 04:55:18;;;;;;;;;;;3.10;99.90;;;;;;7332310;19;109492;-65
2023/12/04 04:58:05;;;;;;;;;;;3.00;99.90;;;;;;7329256;19;110437;-65
2023/12/04 05:00:32;;;;;;;;;;;3.10;99.90;;;;;;7329572;19;110062;-64
2023/12/04 05:03:00;;;;;;;;;;;3.10;99.90;;;;;;7332997;19;108628;-65
2023/12/04 05:05:27;;;;;;;;;;;3.10;99.90;;;;;;7334359;19;108645;-65
2023/12/04 05:07:54;;;;;;;;;;;3.10;99.90;;;;;;7331558;19;109267;-65
2023/12/04 05:10:21;;;;;;;;;;;3.10;99.90;;;;;;7332763;19;109464;-65
2023/12/04 05:12:48;;;;;;;;;;;3.20;99.90;;;;;;7327310;19;109402;-65
2023/12/04 05:15:15;;;;;;;;;;;3.20;99.90;;;;;;7332283;19;110315;-68
2023/12/04 05:17:43;;;;;;;;;;;3.20;99.90;;;;;;7335649;19;108929;-65
2023/12/04 05:20:14;;;;;;;;;;;3.20;99.90;;;;;;7332305;19;109102;-66
2023/12/04 05:22:41;;;;;;;;;;;3.20;99.90;;;;;;7328574;19;108908;-65
2023/12/04 05:25:08;;;;;;;;;;;3.20;99.90;;;;;;7328029;19;108803;-65
2023/12/04 05:27:35;;;;;;;;;;;3.20;99.90;;;;;;7325342;19;109518;-65
2023/12/04 05:30:03;;;;;;;;;;;3.20;99.90;;;;;;7329545;19;109408;-68
2023/12/04 05:32:30;;;;;;;;;;;3.20;99.90;;;;;;7327185;19;109426;-74
2023/12/04 05:34:57;;;;;;;;;;;3.20;99.90;;;;;;7330703;19;109462;-73
2023/12/04 05:37:24;;;;;;;;;;;3.30;99.90;;;;;;7336502;19;109653;-67
2023/12/04 05:39:51;;;;;;;;;;;3.30;99.90;;;;;;7329223;19;109468;-69
2023/12/04 05:42:18;;;;;;;;;;;3.30;99.90;;;;;;7332468;19;108385;-65
2023/12/04 05:44:45;;;;;;;;;;;3.30;99.90;;;;;;7329187;19;109030;-66
2023/12/04 05:47:14;;;;;;;;;;;3.30;99.90;;;;;;7329723;19;110200;-65
2023/12/04 05:49:41;;;;;;;;;;;3.30;99.90;;;;;;7323754;19;109764;-65
2023/12/04 05:52:09;;;;;;;;;;;3.20;99.90;;;;;;7328527;19;109048;-67
2023/12/04 05:54:36;;;;;;;;;;;3.20;99.90;;;;;;7324512;19;109772;-68
2023/12/04 05:57:03;;;;;;;;;;;3.20;99.90;;;;;;7327829;19;110344;-65
2023/12/04 05:59:30;;;;;;;;;;;3.20;99.90;;;;;;7333369;19;109436;-65
2023/12/04 06:01:57;;;;;;;;;;;3.20;99.90;;;;;;7326205;19;110646;-66
2023/12/04 06:04:25;;;;;;;;;;;3.20;99.90;;;;;;7326009;19;113022;-66
2023/12/04 06:06:56;;;;;;;;;;;3.20;99.90;;;;;;7326797;19;109247;-67
2023/12/04 06:09:23;;;;;;;;;;;3.30;99.90;;;;;;7331369;19;108685;-67
2023/12/04 06:11:50;;;;;;;;;;;3.20;99.90;;;;;;7327216;19;110637;-66
2023/12/04 06:14:17;;;;;;;;;;;3.20;99.90;;;;;;7330577;19;110322;-66
2023/12/04 06:16:45;;;;;;;;;;;3.30;99.90;;;;;;7327171;19;111259;-66
2023/12/04 06:19:12;;;;;;;;;;;3.30;99.90;;;;;;7333304;19;110688;-66
2023/12/04 06:21:39;;;;;;;;;;;3.30;99.90;;;;;;7343538;19;110511;-66
2023/12/04 06:24:08;;;;;;;;;;;3.30;99.90;;;;;;7333060;19;109178;-67
2023/12/04 06:26:38;;;;;;;;;;;3.30;99.90;;;;;;7336544;19;109668;-66
2023/12/04 06:29:06;;;;;;;;;;;3.30;99.90;;;;;;7335849;19;109526;-70
2023/12/04 06:31:33;;;;;;;;;;;3.40;99.90;;;;;;7336878;19;109205;-75
2023/12/04 06:34:00;;;;;;;;;;;3.30;99.90;;;;;;7334396;19;110573;-71
2023/12/04 06:36:31;;;;;;;;;;;3.40;99.90;;;;;;7337516;19;108726;-67
2023/12/04 06:41:30;;;;;;;;;;;3.30;99.90;;;;;;7341482;19;110455;-86
2023/12/04 06:43:58;;;;;;;;;;;3.30;99.90;;;;;;7346637;19;108453;-87
2023/12/04 06:46:27;;;;;;;;;;;3.30;99.90;;;;;;7340250;19;109517;-87
2023/12/04 06:48:57;;;;;;;;;;;3.30;99.90;;;;;;7350507;19;108943;-65
2023/12/04 06:51:24;;;;;;;;;;;3.30;99.90;;;;;;7335183;19;109139;-66
2023/12/04 06:53:52;;;;;;;;;;;3.30;99.90;;;;;;7337738;19;109931;-66
2023/12/04 06:56:19;;;;;;;;;;;3.30;99.90;;;;;;7332018;19;109352;-76
2023/12/04 06:58:47;;;;;;;;;;;3.30;99.90;;;;;;7335831;19;111724;-76
2023/12/04 07:01:14;;;;;;;;;;;3.30;99.90;;;;;;7332672;19;109808;-76
2023/12/04 07:03:41;;;;;;;;;;;3.30;99.90;;;;;;7338356;19;109081;-76
2023/12/04 07:06:09;;;;;;;;;;;3.30;99.90;;;;;;7340877;19;109868;-76
2023/12/04 07:08:36;;;;;;;;;;;3.30;99.90;;;;;;7337966;19;109676;-75
2023/12/04 07:11:03;;;;;;;;;;;3.30;99.90;;;;;;7336341;19;110193;-75
2023/12/04 07:13:30;;;;;;;;;;;3.30;99.90;;;;;;7335588;19;109686;-75
2023/12/04 07:15:59;;;;;;;;;;;3.30;99.90;;;;;;7334930;19;108871;-78
2023/12/04 07:18:26;;;;;;;;;;;3.30;99.90;;;;;;7337325;19;109098;-78
2023/12/04 07:20:54;;;;;;;;;;;3.30;99.90;;;;;;7338682;19;110356;-77
2023/12/04 07:23:21;;;;;;;;;;;3.30;99.90;;;;;;7337992;19;109525;-78
2023/12/04 07:25:52;;;;;;;;;;;3.30;99.90;;;;;;7341092;19;111953;-77
2023/12/04 07:28:20;;;;;;;;;;;3.30;99.90;;;;;;7335816;19;109519;-78
2023/12/04 07:30:47;;;;;;;;;;;3.30;99.90;;;;;;7335475;19;109093;-77
2023/12/04 07:33:14;;;;;;;;;;;3.30;99.90;;;;;;7336082;19;110155;-77
2023/12/04 07:35:41;;;;;;;;;;;3.30;99.90;;;;;;7338121;19;110112;-77
2023/12/04 07:38:08;;;;;;;;;;;3.30;99.90;;;;;;7342366;19;109803;-77
2023/12/04 07:40:35;;;;;;;;;;;3.30;99.90;;;;;;7352168;19;109323;-77
2023/12/04 07:45:37;;;;;;;;;;;3.40;99.90;;;;;;7338397;19;108291;-83
2023/12/04 07:48:04;;;;;;;;;;;3.40;99.90;;;;;;7342216;19;110390;-84
2023/12/04 07:50:32;;;;;;;;;;;3.40;99.90;;;;;;7337024;19;109757;-85
2023/12/04 07:52:59;;;;;;;;;;;3.40;99.90;;;;;;7335888;19;111849;-84
2023/12/04 07:55:26;;;;;;;;;;;3.40;99.90;;;;;;7336725;19;109246;-84
2023/12/04 07:57:53;;;;;;;;;;;3.40;99.90;;;;;;7332655;19;109276;-77
2023/12/04 08:00:22;;;;;;;;;;;3.40;99.90;;;;;;7334973;19;109463;-80
2023/12/04 08:02:49;;;;;;;;;;;3.50;99.90;;;;;;7339487;19;109238;-78
2023/12/04 08:05:17;;;;;;;;;;;3.50;99.90;;;;;;7338933;19;109447;-77
2023/12/04 08:07:44;;;;;;;;;;;3.50;99.90;;;;;;7334895;19;110103;-78
2023/12/04 08:10:12;;;;;;;;;;;3.50;99.90;;;;;;7338186;19;108682;-77
2023/12/04 08:12:39;;;;;;;;;;;3.50;99.90;;;;;;7334393;19;110333;-77
2023/12/04 08:15:06;;;;;;;;;;;3.50;99.90;;;;;;7336091;19;109489;-78
2023/12/04 08:17:34;;;;;;;;;;;3.50;99.90;;;;;;7334525;19;111671;-78
2023/12/04 08:20:01;;;;;;;;;;;3.50;99.90;;;;;;7339651;19;110177;-85
2023/12/04 08:22:28;;;;;;;;;;;3.50;99.90;;;;;;7335037;19;110537;-85
2023/12/04 08:24:57;;;;;;;;;;;3.50;99.90;;;;;;7336461;19;109817;-84
2023/12/04 08:27:25;;;;;;;;;;;3.50;99.90;;;;;;7334285;19;110298;-76
2023/12/04 08:29:52;;;;;;;;;;;3.50;99.90;;;;;;7337711;19;108861;-77
2023/12/04 08:32:21;;;;;;;;;;;3.60;99.90;;;;;;7341061;19;109485;-77
2023/12/04 08:34:48;;;;;;;;;;;3.60;99.90;;;;;;7338289;19;109010;-77
2023/12/04 08:37:15;;;;;;;;;;;3.60;99.90;;;;;;7336305;19;109500;-77
2023/12/04 08:39:42;;;;;;;;;;;3.60;99.90;;;;;;7336337;19;110603;-77
2023/12/04 08:42:09;;;;;;;;;;;3.60;99.90;;;;;;7335961;19;108660;-77
2023/12/04 08:44:47;;;;;;;;;;;3.60;99.90;;;;;;7336212;19;110539;-77
2023/12/04 08:47:14;;;;;;;;;;;3.60;99.90;;;;;;7333908;19;110304;-77
2023/12/04 08:49:41;;;;;;;;;;;3.70;99.90;;;;;;7336294;19;108710;-76
2023/12/04 08:52:14;;;;;;;;;;;3.70;99.90;;;;;;7336064;19;109992;-77
2023/12/04 08:54:42;;;;;;;;;;;3.70;99.90;;;;;;7343436;19;110595;-83
2023/12/04 08:57:09;;;;;;;;;;;3.70;99.90;;;;;;7338140;19;109186;-82
2023/12/04 08:59:37;;;;;;;;;;;3.70;99.90;;;;;;7336401;19;110076;-76
2023/12/04 09:02:04;;;;;;;;;;;3.80;99.90;;;;;;7335647;19;108786;-76
2023/12/04 09:04:32;;;;;;;;;;;3.80;99.90;;;;;;7332807;19;108947;-76
2023/12/04 09:07:00;;;;;;;;;;;3.80;99.90;;;;;;7333033;19;110271;-77
2023/12/04 09:09:30;;;;;;;;;;;3.80;99.90;;;;;;7335918;19;113060;-77
2023/12/04 09:11:58;;;;;;;;;;;3.80;99.90;;;;;;7332728;19;109486;-77
2023/12/04 09:14:27;;;;;;;;;;;3.80;99.90;;;;;;7333782;19;110210;-77
2023/12/04 09:16:55;;;;;;;;;;;3.80;99.90;;;;;;7341056;19;109824;-77
2023/12/04 09:19:25;;;;;;;;;;;3.90;99.90;;;;;;7336374;19;110645;-77
2023/12/04 09:21:53;;;;;;;;;;;3.90;99.90;;;;;;7334250;19;108397;-77
2023/12/04 09:24:34;;;;;;;;;;;3.90;99.90;;;;;;7332984;19;110174;-77
2023/12/04 09:27:01;;;;;;;;;;;3.90;99.90;;;;;;7331937;19;109247;-77
2023/12/04 09:29:29;;;;;;;;;;;4.00;99.90;;;;;;7333229;19;109139;-77
2023/12/04 09:31:56;;;;;;;;;;;4.00;99.90;;;;;;7331151;19;109479;-78
2023/12/04 09:34:24;;;;;;;;;;;4.00;99.90;;;;;;7332017;19;110199;-76
2023/12/04 09:36:51;;;;;;;;;;;4.00;99.90;;;;;;7338272;19;108518;-77
2023/12/04 09:39:29;;;;;;;;;;;4.10;99.90;;;;;;7335267;19;109969;-84
2023/12/04 09:41:58;;;;;;;;;;;4.10;99.90;;;;;;7333166;19;108853;-83
2023/12/04 09:44:26;;;;;;;;;;;4.10;99.90;;;;;;7331888;19;109105;-84
2023/12/04 09:46:54;;;;;;;;;;;4.10;99.90;;;;;;7330441;19;109261;-77
2023/12/04 09:49:22;;;;;;;;;;;4.10;99.90;;;;;;7332958;19;109111;-77
2023/12/04 09:51:49;;;;;;;;;;;4.10;99.90;;;;;;7334487;19;110488;-77
2023/12/04 09:54:19;;;;;;;;;;;4.10;99.90;;;;;;7343057;19;110181;-77
2023/12/04 09:56:46;;;;;;;;;;;4.10;99.90;;;;;;7341244;19;109325;-77
2023/12/04 09:59:15;;;;;;;;;;;4.10;99.90;;;;;;7344771;19;110123;-78
2023/12/04 10:01:43;;;;;;;;;;;4.10;99.90;;;;;;7339834;19;108679;-77
2023/12/04 10:04:11;;;;;;;;;;;4.10;99.90;;;;;;7341594;19;108819;-77
2023/12/04 10:06:38;;;;;;;;;;;4.10;99.90;;;;;;7340139;19;110531;-77
2023/12/04 10:09:11;;;;;;;;;;;4.20;99.90;;;;;;7339887;19;108640;-77
2023/12/04 10:11:41;;;;;;;;;;;4.20;99.90;;;;;;7340019;19;109361;-77
2023/12/04 10:14:19;;;;;;;;;;;4.20;99.90;;;;;;7338491;19;109814;-78
2023/12/04 10:16:46;;;;;;;;;;;4.20;99.90;;;;;;7342435;19;108637;-78
2023/12/04 10:19:14;;;;;;;;;;;4.30;99.90;;;;;;7338765;19;109420;-78
2023/12/04 10:21:41;;;;;;;;;;;4.30;99.90;;;;;;7345564;19;110267;-78
2023/12/04 10:24:09;;;;;;;;;;;4.30;99.90;;;;;;7339939;19;109074;-78
2023/12/04 10:26:36;;;;;;;;;;;4.20;99.90;;;;;;7344691;19;109638;-79
2023/12/04 10:29:05;;;;;;;;;;;4.20;99.90;;;;;;7347722;19;108814;-77
2023/12/04 10:31:33;;;;;;;;;;;4.20;99.90;;;;;;7349562;19;109071;-80
2023/12/04 10:34:02;;;;;;;;;;;4.20;99.90;;;;;;7347951;19;109341;-80
2023/12/04 10:36:29;;;;;;;;;;;4.20;99.90;;;;;;7348590;19;109299;-80
2023/12/04 10:39:00;;;;;;;;;;;4.20;99.90;;;;;;7348217;19;109153;-81
2023/12/04 10:41:27;;;;;;;;;;;4.20;99.90;;;;;;7341449;19;109710;-80
2023/12/04 10:43:55;;;;;;;;;;;4.20;99.90;;;;;;7346456;19;109062;-80
2023/12/04 10:46:31;;;;;;;;;;;4.20;99.90;;;;;;7336868;19;109102;-79
2023/12/04 10:48:59;;;;;;;;;;;4.20;99.90;;;;;;7335814;19;108491;-79
2023/12/04 10:51:28;;;;;;;;;;;4.30;99.90;;;;;;7337846;19;110390;-78
2023/12/04 10:53:55;;;;;;;;;;;4.30;99.90;;;;;;7338221;19;110117;-78
2023/12/04 10:56:38;;;;;;;;;;;4.30;99.90;;;;;;7339176;19;109196;-78
2023/12/04 10:59:10;;;;;;;;;;;4.30;99.90;;;;;;7342734;19;109715;-78
2023/12/04 11:01:40;;;;;;;;;;;4.40;99.90;;;;;;7339541;19;110268;-78
2023/12/04 11:04:08;;;;;;;;;;;4.40;99.90;;;;;;7341004;19;108776;-77
2023/12/04 11:06:38;;;;;;;;;;;4.40;99.90;;;;;;7345908;19;108537;-78
2023/12/04 11:09:06;;;;;;;;;;;4.40;99.90;;;;;;7337889;19;109366;-77
2023/12/04 11:11:35;;;;;;;;;;;4.50;99.90;;;;;;7337593;19;109112;-77
2023/12/04 11:16:57;;;;;;;;;;;4.50;99.90;;;;;;7333306;19;108543;-85
2023/12/04 11:19:29;;;;;;;;;;;4.60;99.90;;;;;;7335588;19;108828;-85
2023/12/04 11:21:58;;;;;;;;;;;4.60;99.90;;;;;;7335427;19;109961;-85
2023/12/04 11:24:25;;;;;;;;;;;4.60;99.90;;;;;;7339013;19;109102;-84
2023/12/04 11:26:53;;;;;;;;;;;4.60;99.90;;;;;;7336611;19;110135;-84
2023/12/04 11:29:21;;;;;;;;;;;4.70;99.90;;;;;;7342357;19;110473;-84
2023/12/04 11:31:48;;;;;;;;;;;4.70;99.90;;;;;;7338102;19;109247;-84
2023/12/04 11:34:15;;;;;;;;;;;4.70;99.90;;;;;;7334570;19;109520;-85
2023/12/04 11:36:44;;;;;;;;;;;4.80;99.90;;;;;;7340060;19;108681;-84
2023/12/04 11:39:12;;;;;;;;;;;4.80;99.90;;;;;;7335766;19;109373;-85
2023/12/04 11:41:40;;;;;;;;;;;4.90;99.90;;;;;;7339828;19;109224;-84
2023/12/04 11:44:14;;;;;;;;;;;4.90;99.90;;;;;;7340376;19;108591;-85
2023/12/04 11:47:13;;;;;;;;;;;5.00;99.90;;;;;;7337096;19;109314;-85
2023/12/04 11:49:44;;;;;;;;;;;5.00;99.90;;;;;;7339911;19;111486;-85
2023/12/04 11:52:11;;;;;;;;;;;5.00;99.90;;;;;;7335070;19;108935;-84
2023/12/04 11:55:03;;;;;;;;;;;5.00;99.90;;;;;;7337633;19;110729;-85
2023/12/04 11:57:34;;;;;;;;;;;5.00;99.90;;;;;;7338181;19;108917;-85
2023/12/04 12:00:11;;;;;;;;;;;5.00;99.90;;;;;;7338971;19;109497;-84
2023/12/04 12:02:40;;;;;;;;;;;5.00;99.90;;;;;;7333058;19;109964;-76
2023/12/04 12:05:27;;;;;;;;;;;5.00;99.90;;;;;;7336466;19;109825;-76
2023/12/04 12:07:55;;;;;;;;;;;5.00;99.90;;;;;;7336850;19;109261;-76
2023/12/04 12:10:23;;;;;;;;;;;5.00;99.90;;;;;;7339167;19;110866;-76
2023/12/04 12:12:51;;;;;;;;;;;5.00;99.90;;;;;;7342738;19;108912;-76
2023/12/04 12:15:19;;;;;;;;;;;5.00;99.90;;;;;;7334101;19;110613;-76
2023/12/04 12:17:46;;;;;;;;;;;5.00;99.90;;;;;;7336832;19;109262;-76
2023/12/04 12:20:14;;;;;;;;;;;5.00;99.90;;;;;;7334811;19;109246;-77
2023/12/04 12:22:43;;;;;;;;;;;5.00;99.90;;;;;;7336523;19;109930;-75
2023/12/04 12:25:11;;;;;;;;;;;5.00;99.90;;;;;;7335407;19;109125;-78
2023/12/04 12:27:38;;;;;;;;;;;5.00;99.90;;;;;;7337693;19;109159;-77
2023/12/04 12:30:06;;;;;;;;;;;5.00;99.90;;;;;;7335891;19;109421;-77
2023/12/04 12:32:34;;;;;;;;;;;5.00;99.90;;;;;;7337914;19;109008;-85
2023/12/04 12:43:21;;;;;;;;;;;5.10;99.90;;;;;;7327965;19;110806;-77
2023/12/04 12:45:48;;;;;;;;;;;5.10;99.90;;;;;;7335782;19;108712;-73
2023/12/04 12:48:15;;;;;;;;;;;5.10;99.90;;;;;;7333764;19;109002;-77
2023/12/04 12:50:44;;;;;;;;;;;5.10;99.90;;;;;;7337047;19;110130;-78
2023/12/04 12:53:12;;;;;;;;;;;5.10;99.90;;;;;;7335014;19;108944;-77
2023/12/04 12:55:42;;;;;;;;;;;5.10;99.90;;;;;;7335378;19;109832;-75
2023/12/04 12:58:09;;;;;;;;;;;5.10;99.90;;;;;;7340782;19;113286;-75
2023/12/04 13:00:38;;;;;;;;;;;5.10;99.90;;;;;;7336016;19;109113;-77
2023/12/04 13:03:13;;;;;;;;;;;5.10;99.90;;;;;;7336755;19;109147;-77
2023/12/04 13:05:40;;;;;;;;;;;5.10;99.90;;;;;;7332296;19;108552;-78
2023/12/04 13:08:07;;;;;;;;;;;5.10;99.90;;;;;;7338977;19;112353;-85
2023/12/04 13:10:35;;;;;;;;;;;5.00;99.90;;;;;;7335038;19;110590;-84
2023/12/04 13:13:02;;;;;;;;;;;5.00;99.90;;;;;;7333474;19;109804;-85
2023/12/04 13:15:29;;;;;;;;;;;5.00;99.90;;;;;;7331561;19;109535;-85
2023/12/04 13:17:56;;;;;;;;;;;5.00;99.90;;;;;;7333770;19;113003;-85
2023/12/04 13:20:23;;;;;;;;;;;5.00;99.90;;;;;;7338723;19;108680;-85
2023/12/04 13:22:51;;;;;;;;;;;5.00;99.90;;;;;;7332125;19;110661;-86
2023/12/04 13:25:18;;;;;;;;;;;5.00;99.90;;;;;;7336225;19;109122;-85
2023/12/04 13:30:21;;;;;;;;;;;5.00;99.90;;;;;;7339291;19;109118;-77
2023/12/04 13:32:50;;;;;;;;;;;5.00;99.90;;;;;;7341987;19;108898;-78
2023/12/04 13:35:18;;;;;;;;;;;5.00;99.90;;;;;;7340310;19;109078;-78
2023/12/04 13:37:45;;;;;;;;;;;4.90;99.90;;;;;;7342909;19;109099;-78
2023/12/04 13:40:15;;;;;;;;;;;5.00;99.90;;;;;;7340818;19;108942;-78
2023/12/04 13:45:29;;;;;;;;;;;5.00;99.90;;;;;;7341449;19;108495;-78
2023/12/04 13:47:56;;;;;;;;;;;4.90;99.90;;;;;;7343204;19;109635;-80
2023/12/04 13:50:23;;;;;;;;;;;4.90;99.90;;;;;;7338284;19;109555;-78
2023/12/04 13:52:56;;;;;;;;;;;4.90;99.90;;;;;;7342607;19;109804;-79
2023/12/04 13:56:12;;;;;;;;;;;5.00;99.90;;;;;;7341420;19;109276;-78
2023/12/04 13:58:36;;;;;;;;;;;4.90;99.90;;;;;;7341605;19;110168;-78
2023/12/04 14:00:59;;;;;;;;;;;4.90;99.90;;;;;;7341230;19;108748;-78
2023/12/04 14:03:27;;;;;;;;;;;4.90;99.90;;;;;;7343382;19;109371;-78
2023/12/04 14:05:56;;;;;;;;;;;4.90;99.90;;;;;;7342643;19;108437;-77
2023/12/04 14:08:23;;;;;;;;;;;4.80;99.90;;;;;;7342170;19;109027;-77
2023/12/04 14:10:51;;;;;;;;;;;4.80;99.90;;;;;;7339974;19;110809;-77
2023/12/04 14:13:20;;;;;;;;;;;4.80;99.90;;;;;;7339224;19;108677;-78
2023/12/04 14:15:47;;;;;;;;;;;4.80;99.90;;;;;;7338639;19;109237;-77
2023/12/04 14:18:14;;;;;;;;;;;4.80;99.90;;;;;;7338300;19;110464;-77
2023/12/04 14:20:41;;;;;;;;;;;4.70;99.90;;;;;;7341877;19;108501;-77
2023/12/04 14:23:08;;;;;;;;;;;4.70;99.90;;;;;;7339747;19;108580;-77
2023/12/04 14:25:35;;;;;;;;;;;4.70;99.90;;;;;;7345464;19;110188;-78
2023/12/04 14:28:02;;;;;;;;;;;4.70;99.90;;;;;;7343353;19;109046;-77
2023/12/04 14:30:30;;;;;;;;;;;4.70;99.90;;;;;;7338136;19;112236;-79
2023/12/04 14:32:57;;;;;;;;;;;4.70;99.90;;;;;;7341136;19;108411;-79
2023/12/04 14:35:24;;;;;;;;;;;4.70;99.90;;;;;;7340441;19;111186;-78
2023/12/04 14:37:51;;;;;;;;;;;4.70;99.90;;;;;;7341937;19;110015;-79
2023/12/04 14:40:20;;;;;;;;;;;4.70;99.90;;;;;;7339019;19;108743;-78
2023/12/04 14:42:47;;;;;;;;;;;4.70;99.90;;;;;;7340380;19;109090;-79
2023/12/04 14:45:16;;;;;;;;;;;4.70;99.90;;;;;;7340536;19;109050;-79
2023/12/04 14:47:43;;;;;;;;;;;4.60;99.90;;;;;;7348085;19;108395;-79